createdAt,value
2022-12-12T00:01:04.774Z,47.03
2022-12-12T00:03:32.229Z,47.73
2022-12-12T00:05:59.479Z,44.23
2022-12-12T00:08:26.685Z,43.03
2022-12-12T00:10:53.905Z,47.77
2022-12-12T00:13:21.007Z,49.10
2022-12-12T00:15:48.159Z,47.77
2022-12-12T00:18:15.315Z,39.57
2022-12-12T00:20:42.422Z,41.27
2022-12-12T00:23:09.518Z,43.07
2022-12-12T00:25:36.669Z,46.23
2022-12-12T00:28:03.826Z,40.57
2022-12-12T00:30:30.900Z,43.03
2022-12-12T00:32:58.006Z,43.87
2022-12-12T00:35:25.184Z,47.47
2022-12-12T00:37:52.320Z,41.83
2022-12-12T00:40:19.467Z,40.23
2022-12-12T00:42:46.592Z,48.80
2022-12-12T00:45:13.924Z,45.67
2022-12-12T00:47:41.321Z,44.23
2022-12-12T00:50:08.632Z,47.47
2022-12-12T00:52:35.726Z,44.30
2022-12-12T00:55:02.841Z,41.73
2022-12-12T00:57:30.098Z,44.87
2022-12-12T00:59:58.344Z,45.73
2022-12-12T01:02:28.308Z,46.40
2022-12-12T01:04:55.681Z,42.20
2022-12-12T01:07:23.490Z,46.30
2022-12-12T01:09:50.618Z,42.10
2022-12-12T01:12:17.769Z,44.03
2022-12-12T01:14:44.851Z,40.53
2022-12-12T01:17:11.968Z,48.63
2022-12-12T01:19:39.135Z,42.67
2022-12-12T01:22:06.251Z,43.50
2022-12-12T01:24:33.385Z,48.80
2022-12-12T01:27:00.481Z,45.50
2022-12-12T01:29:27.771Z,47.23
2022-12-12T01:31:55.240Z,43.50
2022-12-12T01:34:22.328Z,45.83
2022-12-12T01:36:49.485Z,47.90
2022-12-12T01:39:16.622Z,48.37
2022-12-12T01:41:44.904Z,49.27
2022-12-12T01:44:30.573Z,49.73
2022-12-12T01:46:57.800Z,45.97
2022-12-12T01:49:26.015Z,49.83
2022-12-12T01:51:54.419Z,45.77
2022-12-12T01:54:23.989Z,46.07
2022-12-12T01:56:52.131Z,45.57
2022-12-12T01:59:21.718Z,46.93
2022-12-12T02:01:49.105Z,44.77
2022-12-12T02:04:16.713Z,43.83
2022-12-12T02:06:44.006Z,44.70
2022-12-12T02:09:13.149Z,46.97
2022-12-12T02:11:45.475Z,44.30
2022-12-12T02:14:13.498Z,49.03
2022-12-12T02:16:50.308Z,54.67
2022-12-12T02:19:43.925Z,47.17
2022-12-12T02:22:20.581Z,46.10
2022-12-12T02:24:57.003Z,45.33
2022-12-12T02:27:24.102Z,45.37
2022-12-12T02:30:06.483Z,45.23
2022-12-12T02:32:45.428Z,46.07
2022-12-12T02:35:18.510Z,49.20
2022-12-12T02:37:51.505Z,50.83
2022-12-12T02:40:24.437Z,51.50
2022-12-12T02:43:06.747Z,54.33
2022-12-12T02:45:51.546Z,51.00
2022-12-12T02:48:21.702Z,51.93
2022-12-12T02:50:50.503Z,49.80
2022-12-12T02:53:18.642Z,52.00
2022-12-12T02:55:45.822Z,50.60
2022-12-12T02:58:13.771Z,55.50
2022-12-12T03:00:46.103Z,52.97
2022-12-12T03:03:42.637Z,54.33
2022-12-12T03:06:40.974Z,53.50
2022-12-12T03:09:15.095Z,53.70
2022-12-12T03:12:02.342Z,57.47
2022-12-12T03:14:29.420Z,57.87
2022-12-12T03:17:09.160Z,50.17
2022-12-12T03:19:54.937Z,52.90
2022-12-12T03:22:25.105Z,56.27
2022-12-12T03:24:52.187Z,57.73
2022-12-12T03:27:22.740Z,51.20
2022-12-12T03:29:55.960Z,53.00
2022-12-12T03:32:24.323Z,55.13
2022-12-12T03:34:56.592Z,56.17
2022-12-12T03:37:28.968Z,55.83
2022-12-12T03:40:02.218Z,53.67
2022-12-12T03:42:43.298Z,53.93
2022-12-12T03:45:10.774Z,58.97
2022-12-12T03:47:51.973Z,51.67
2022-12-12T03:50:31.141Z,54.10
2022-12-12T03:53:01.253Z,53.33
2022-12-12T03:55:38.670Z,53.07
2022-12-12T03:58:24.844Z,53.33
2022-12-12T04:00:53.074Z,52.10
2022-12-12T04:03:28.506Z,54.87
2022-12-12T04:06:19.306Z,56.93
2022-12-12T04:09:06.958Z,52.40
2022-12-12T04:12:01.521Z,49.77
2022-12-12T04:14:41.747Z,51.33
2022-12-12T04:17:13.843Z,58.33
2022-12-12T04:20:03.653Z,53.77
2022-12-12T04:22:54.476Z,56.87
2022-12-12T04:25:33.713Z,55.20
2022-12-12T04:28:04.295Z,57.97
2022-12-12T04:30:32.469Z,54.27
2022-12-12T04:33:06.508Z,61.03
2022-12-12T04:35:35.464Z,59.70
2022-12-12T04:38:05.439Z,56.47
2022-12-12T04:40:37.537Z,59.87
2022-12-12T04:43:06.810Z,65.07
2022-12-12T04:45:36.298Z,70.23
2022-12-12T04:48:04.598Z,64.00
2022-12-12T04:50:33.543Z,68.43
2022-12-12T04:53:02.627Z,69.17
2022-12-12T04:55:32.053Z,73.23
2022-12-12T04:57:59.436Z,70.60
2022-12-12T05:00:29.785Z,73.97
2022-12-12T05:02:56.859Z,72.13
2022-12-12T05:05:36.195Z,72.30
2022-12-12T05:08:13.224Z,65.23
2022-12-12T05:10:44.494Z,66.63
2022-12-12T05:13:19.132Z,69.50
2022-12-12T05:15:47.822Z,65.00
2022-12-12T05:18:14.966Z,63.30
2022-12-12T05:20:42.084Z,63.47
2022-12-12T05:23:09.179Z,64.37
2022-12-12T05:25:36.496Z,60.07
2022-12-12T05:28:03.720Z,68.13
2022-12-12T05:30:30.917Z,70.27
2022-12-12T05:32:58.108Z,66.47
2022-12-12T05:35:25.345Z,60.17
2022-12-12T05:37:52.493Z,67.97
2022-12-12T05:40:20.554Z,67.07
2022-12-12T05:42:48.215Z,67.70
2022-12-12T05:45:15.661Z,71.03
2022-12-12T05:47:42.961Z,63.93
2022-12-12T05:50:10.310Z,63.03
2022-12-12T05:52:37.468Z,66.23
2022-12-12T05:55:04.895Z,71.57
2022-12-12T05:57:32.023Z,70.77
2022-12-12T05:59:59.157Z,65.60
2022-12-12T06:02:26.282Z,67.93
2022-12-12T06:04:53.374Z,74.27
2022-12-12T06:07:20.458Z,71.27
2022-12-12T06:09:47.573Z,66.70
2022-12-12T06:12:14.650Z,68.53
2022-12-12T06:14:41.828Z,59.97
2022-12-12T06:17:08.890Z,64.20
2022-12-12T06:19:36.018Z,62.27
2022-12-12T06:22:03.117Z,62.10
2022-12-12T06:24:30.210Z,59.97
2022-12-12T06:26:57.348Z,59.57
2022-12-12T06:29:24.550Z,59.40
2022-12-12T06:31:51.815Z,62.53
2022-12-12T06:34:19.033Z,65.23
2022-12-12T06:36:46.098Z,59.37
2022-12-12T06:39:13.406Z,67.37
2022-12-12T06:41:40.717Z,58.03
2022-12-12T06:44:07.809Z,57.60
2022-12-12T06:46:34.997Z,59.00
2022-12-12T06:49:03.071Z,64.28
2022-12-12T06:51:33.313Z,61.67
2022-12-12T06:54:00.432Z,62.77
2022-12-12T06:56:27.965Z,60.77
2022-12-12T06:58:55.483Z,76.47
2022-12-12T07:01:23.659Z,119.27
2022-12-12T07:03:51.778Z,100.43
2022-12-12T07:06:19.629Z,81.90
2022-12-12T07:08:47.135Z,79.70
2022-12-12T07:11:15.852Z,73.93
2022-12-12T07:13:43.272Z,74.97
2022-12-12T07:16:10.792Z,71.70
2022-12-12T07:18:38.324Z,72.77
2022-12-12T07:21:09.521Z,75.73
2022-12-12T07:23:37.273Z,67.27
2022-12-12T07:26:05.688Z,75.30
2022-12-12T07:28:32.957Z,75.57
2022-12-12T07:31:01.359Z,72.93
2022-12-12T07:33:38.259Z,63.83
2022-12-12T07:36:10.409Z,66.80
2022-12-12T07:38:37.757Z,64.60
2022-12-12T07:41:05.828Z,63.73
2022-12-12T07:43:34.600Z,64.30
2022-12-12T07:46:06.842Z,68.67
2022-12-12T07:48:34.305Z,67.30
2022-12-12T07:51:01.961Z,64.13
2022-12-12T07:53:29.992Z,70.20
2022-12-12T07:55:58.054Z,68.53
2022-12-12T07:58:25.170Z,68.10
2022-12-12T08:00:52.333Z,66.87
2022-12-12T08:03:19.484Z,65.70
2022-12-12T08:05:46.592Z,63.23
2022-12-12T08:08:13.828Z,75.20
2022-12-12T08:10:41.416Z,76.63
2022-12-12T08:13:08.599Z,68.20
2022-12-12T08:15:35.734Z,71.73
2022-12-12T08:18:02.850Z,66.73
2022-12-12T08:20:29.954Z,62.67
2022-12-12T08:22:57.101Z,65.80
2022-12-12T08:25:24.194Z,66.73
2022-12-12T08:27:51.316Z,60.67
2022-12-12T08:30:18.414Z,65.83
2022-12-12T08:32:45.506Z,61.73
2022-12-12T08:35:12.821Z,60.53
2022-12-12T08:37:40.160Z,68.30
2022-12-12T08:40:07.586Z,58.67
2022-12-12T08:42:34.685Z,58.40
2022-12-12T08:45:01.831Z,54.70
2022-12-12T08:47:29.535Z,53.43
2022-12-12T08:49:56.631Z,51.17
2022-12-12T08:52:23.746Z,56.23
2022-12-12T08:54:50.818Z,59.50
2022-12-12T08:57:21.415Z,60.07
2022-12-12T08:59:52.860Z,61.70
2022-12-12T09:02:20.107Z,60.50
2022-12-12T09:04:47.345Z,61.30
2022-12-12T09:07:14.475Z,60.43
2022-12-12T09:09:41.625Z,61.13
2022-12-12T09:12:09.143Z,55.20
2022-12-12T09:14:36.297Z,51.30
2022-12-12T09:17:03.432Z,47.13
2022-12-12T09:19:31.096Z,50.10
2022-12-12T09:21:58.193Z,48.83
2022-12-12T09:24:25.545Z,44.03
2022-12-12T09:26:52.633Z,43.87
2022-12-12T09:29:19.797Z,37.37
2022-12-12T09:31:46.989Z,43.03
2022-12-12T09:34:14.190Z,39.60
2022-12-12T09:36:41.373Z,40.10
2022-12-12T09:39:08.461Z,36.80
2022-12-12T09:41:35.558Z,36.07
2022-12-12T09:44:15.866Z,37.17
2022-12-12T09:46:55.453Z,35.13
2022-12-12T09:49:22.578Z,33.93
2022-12-12T09:51:51.364Z,35.10
2022-12-12T09:54:20.753Z,33.80
2022-12-12T09:57:06.690Z,38.00
2022-12-12T09:59:33.816Z,33.20
2022-12-12T10:02:18.197Z,34.37
2022-12-12T10:05:08.671Z,35.77
2022-12-12T10:07:39.984Z,31.83
2022-12-12T10:10:18.944Z,29.73
2022-12-12T10:12:46.370Z,27.17
2022-12-12T10:15:25.327Z,33.07
2022-12-12T10:17:53.401Z,30.67
2022-12-12T10:20:25.952Z,28.70
2022-12-12T10:22:57.039Z,27.30
2022-12-12T10:25:26.531Z,27.87
2022-12-12T10:27:55.609Z,29.80
2022-12-12T10:30:22.790Z,27.40
2022-12-12T10:32:59.837Z,27.13
2022-12-12T10:35:30.824Z,27.33
2022-12-12T10:38:14.504Z,24.90
2022-12-12T10:40:52.077Z,24.93
2022-12-12T10:43:31.626Z,25.57
2022-12-12T10:46:19.096Z,25.70
2022-12-12T10:48:47.840Z,25.13
2022-12-12T10:51:15.876Z,25.40
2022-12-12T10:53:43.044Z,23.70
2022-12-12T10:56:12.075Z,25.80
2022-12-12T10:58:43.297Z,25.47
2022-12-12T11:01:18.694Z,27.20
2022-12-12T11:03:47.748Z,33.43
2022-12-12T11:06:18.570Z,36.53
2022-12-12T11:08:56.462Z,31.27
2022-12-12T11:11:24.835Z,28.47
2022-12-12T11:13:53.467Z,28.73
2022-12-12T11:16:40.854Z,26.03
2022-12-12T11:19:18.513Z,27.07
2022-12-12T11:21:46.589Z,41.20
2022-12-12T11:24:15.327Z,27.73
2022-12-12T11:27:02.702Z,30.33
2022-12-12T11:29:32.850Z,27.00
2022-12-12T11:32:00.298Z,22.63
2022-12-12T11:34:28.264Z,25.83
2022-12-12T11:36:56.101Z,44.10
2022-12-12T11:39:33.347Z,23.73
2022-12-12T11:42:15.473Z,26.53
2022-12-12T11:44:44.039Z,27.70
2022-12-12T11:47:21.694Z,26.73
2022-12-12T11:49:49.639Z,24.17
2022-12-12T11:52:21.525Z,24.97
2022-12-12T11:54:49.257Z,22.77
2022-12-12T11:57:24.352Z,25.67
2022-12-12T12:00:11.948Z,27.97
2022-12-12T12:02:51.279Z,24.60
2022-12-12T12:05:25.932Z,23.67
2022-12-12T12:07:58.117Z,24.93
2022-12-12T12:10:40.852Z,24.97
2022-12-12T12:13:23.218Z,23.93
2022-12-12T12:16:10.698Z,25.30
2022-12-12T12:18:59.185Z,23.40
2022-12-12T12:21:28.532Z,22.47
2022-12-12T12:24:02.761Z,24.47
2022-12-12T12:26:51.093Z,25.07
2022-12-12T12:29:31.877Z,24.53
2022-12-12T12:32:12.623Z,24.83
2022-12-12T12:34:39.681Z,22.73
2022-12-12T12:37:25.596Z,23.53
2022-12-12T12:40:12.997Z,22.83
2022-12-12T12:42:56.428Z,22.23
2022-12-12T12:45:45.684Z,22.63
2022-12-12T12:48:19.700Z,21.17
2022-12-12T12:50:53.055Z,20.50
2022-12-12T12:53:30.058Z,21.77
2022-12-12T12:55:59.819Z,19.53
2022-12-12T12:58:35.990Z,20.50
2022-12-12T13:01:08.480Z,19.57
2022-12-12T13:03:46.281Z,21.10
2022-12-12T13:06:23.310Z,21.07
2022-12-12T13:08:53.705Z,20.43
2022-12-12T13:11:24.101Z,24.57
2022-12-12T13:13:52.735Z,22.63
2022-12-12T13:16:25.466Z,22.20
2022-12-12T13:19:06.973Z,21.70
2022-12-12T13:21:39.787Z,24.53
2022-12-12T13:24:12.331Z,22.67
2022-12-12T13:26:49.602Z,22.57
2022-12-12T13:29:28.978Z,21.73
2022-12-12T13:32:28.609Z,22.40
2022-12-12T13:34:57.373Z,21.43
2022-12-12T13:37:24.833Z,22.73
2022-12-12T13:40:01.940Z,25.13
2022-12-12T13:42:48.971Z,21.57
2022-12-12T13:45:35.167Z,23.47
2022-12-12T13:48:08.383Z,22.23
2022-12-12T13:50:35.576Z,25.07
2022-12-12T13:53:08.846Z,23.83
2022-12-12T13:55:36.706Z,24.27
2022-12-12T13:58:17.169Z,24.30
2022-12-12T14:00:44.645Z,25.10
2022-12-12T14:03:11.801Z,26.57
2022-12-12T14:05:41.792Z,20.93
2022-12-12T14:08:20.816Z,24.30
2022-12-12T14:10:51.496Z,22.60
2022-12-12T14:13:18.611Z,26.50
2022-12-12T14:15:47.390Z,24.73
2022-12-12T14:18:29.904Z,27.07
2022-12-12T14:21:02.194Z,26.47
2022-12-12T14:23:42.278Z,25.90
2022-12-12T14:26:36.021Z,25.53
2022-12-12T14:29:29.169Z,24.57
2022-12-12T14:32:11.663Z,26.77
2022-12-12T14:35:14.111Z,23.60
2022-12-12T14:37:51.368Z,26.93
2022-12-12T14:40:21.441Z,28.23
2022-12-12T14:43:15.835Z,26.57
2022-12-12T14:45:39.670Z,25.73
2022-12-12T14:48:10.667Z,29.53
2022-12-12T14:50:38.986Z,26.63
2022-12-12T14:53:13.838Z,36.43
2022-12-12T14:55:47.738Z,35.87
2022-12-12T14:58:18.533Z,47.40
2022-12-12T15:00:47.695Z,46.10
2022-12-12T15:03:15.547Z,44.67
2022-12-12T15:05:42.873Z,46.73
2022-12-12T15:08:19.333Z,45.33
2022-12-12T15:10:46.505Z,45.93
2022-12-12T15:13:21.018Z,54.03
2022-12-12T15:15:50.492Z,50.30
2022-12-12T15:18:19.375Z,52.90
2022-12-12T15:20:46.458Z,55.53
2022-12-12T15:23:17.922Z,53.20
2022-12-12T15:25:48.537Z,51.23
2022-12-12T15:28:16.423Z,53.23
2022-12-12T15:30:44.788Z,53.23
2022-12-12T15:33:19.418Z,50.37
2022-12-12T15:35:50.233Z,55.83
2022-12-12T15:38:17.358Z,55.20
2022-12-12T15:40:48.118Z,51.17
2022-12-12T15:43:16.997Z,55.73
2022-12-12T15:45:50.271Z,60.97
2022-12-12T15:48:18.307Z,64.30
2022-12-12T15:50:45.901Z,64.63
2022-12-12T15:53:17.532Z,66.60
2022-12-12T15:56:03.367Z,71.63
2022-12-12T15:58:39.023Z,71.03
2022-12-12T16:01:08.065Z,73.43
2022-12-12T16:03:57.082Z,77.23
2022-12-12T16:06:28.928Z,73.37
2022-12-12T16:09:08.282Z,76.13
2022-12-12T16:11:41.635Z,81.13
2022-12-12T16:14:24.477Z,81.40
2022-12-12T16:16:57.209Z,70.97
2022-12-12T16:19:38.053Z,79.37
2022-12-12T16:22:06.103Z,79.07
2022-12-12T16:24:33.254Z,74.07
2022-12-12T16:27:01.628Z,74.80
2022-12-12T16:29:28.750Z,70.13
2022-12-12T16:31:56.149Z,69.67
2022-12-12T16:34:23.484Z,68.77
2022-12-12T16:36:50.606Z,69.20
2022-12-12T16:39:17.690Z,65.93
2022-12-12T16:41:44.822Z,69.10
2022-12-12T16:44:12.066Z,68.37
2022-12-12T16:46:39.219Z,70.70
2022-12-12T16:49:09.366Z,69.13
2022-12-12T16:51:41.091Z,66.57
2022-12-12T16:54:14.628Z,70.07
2022-12-12T16:56:41.766Z,70.07
2022-12-12T16:59:09.431Z,87.00
2022-12-12T17:01:38.860Z,90.00
2022-12-12T17:04:07.689Z,100.57
2022-12-12T17:06:35.896Z,98.10
2022-12-12T17:09:03.025Z,93.23
2022-12-12T17:11:30.425Z,97.70
2022-12-12T17:13:57.568Z,90.97
2022-12-12T17:16:27.887Z,101.23
2022-12-12T17:18:55.352Z,98.77
2022-12-12T17:21:22.679Z,107.17
2022-12-12T17:23:49.781Z,99.40
2022-12-12T17:26:16.893Z,105.10
2022-12-12T17:28:44.015Z,105.50
2022-12-12T17:31:11.202Z,98.60
2022-12-12T17:33:46.197Z,96.87
2022-12-12T17:36:16.875Z,86.33
2022-12-12T17:38:43.953Z,90.90
2022-12-12T17:41:11.037Z,92.63
2022-12-12T17:43:38.400Z,92.97
2022-12-12T17:46:07.237Z,87.63
2022-12-12T17:48:35.383Z,96.07
2022-12-12T17:51:04.275Z,86.97
2022-12-12T17:53:32.634Z,89.10
2022-12-12T17:56:01.770Z,86.07
2022-12-12T17:58:39.792Z,95.53
2022-12-12T18:01:18.362Z,94.27
2022-12-12T18:03:45.960Z,83.40
2022-12-12T18:06:13.633Z,87.70
2022-12-12T18:08:41.310Z,97.10
2022-12-12T18:11:12.921Z,94.27
2022-12-12T18:13:40.624Z,93.87
2022-12-12T18:16:08.532Z,105.57
2022-12-12T18:18:35.841Z,105.30
2022-12-12T18:21:03.998Z,105.23
2022-12-12T18:23:31.244Z,102.27
2022-12-12T18:26:02.424Z,100.60
2022-12-12T18:28:29.828Z,106.30
2022-12-12T18:30:56.978Z,108.07
2022-12-12T18:33:24.092Z,105.17
2022-12-12T18:35:51.800Z,111.03
2022-12-12T18:38:19.349Z,113.40
2022-12-12T18:40:46.468Z,126.33
2022-12-12T18:43:13.545Z,136.23
2022-12-12T18:45:40.665Z,128.07
2022-12-12T18:48:07.742Z,120.87
2022-12-12T18:50:34.853Z,121.87
2022-12-12T18:53:01.948Z,115.87
2022-12-12T18:55:30.360Z,115.90
2022-12-12T18:57:58.116Z,111.23
2022-12-12T19:00:25.446Z,101.23
2022-12-12T19:02:52.558Z,112.40
2022-12-12T19:05:20.529Z,118.47
2022-12-12T19:07:47.719Z,107.53
2022-12-12T19:10:15.132Z,105.87
2022-12-12T19:12:42.448Z,107.30
2022-12-12T19:15:17.889Z,106.70
2022-12-12T19:17:45.319Z,110.80
2022-12-12T19:20:12.999Z,110.47
2022-12-12T19:22:45.418Z,114.07
2022-12-12T19:25:14.210Z,119.10
2022-12-12T19:27:41.369Z,117.07
2022-12-12T19:30:08.877Z,117.00
2022-12-12T19:32:37.298Z,117.60
2022-12-12T19:35:05.214Z,118.30
2022-12-12T19:37:32.453Z,126.43
2022-12-12T19:39:59.515Z,126.97
2022-12-12T19:42:26.634Z,131.67
2022-12-12T19:44:53.858Z,128.93
2022-12-12T19:47:21.044Z,118.10
2022-12-12T19:49:49.629Z,107.70
2022-12-12T19:52:16.914Z,114.93
2022-12-12T19:54:44.010Z,122.20
2022-12-12T19:57:11.107Z,115.07
2022-12-12T19:59:38.245Z,118.90
2022-12-12T20:02:06.606Z,119.60
2022-12-12T20:04:34.159Z,117.53
2022-12-12T20:07:01.267Z,115.30
2022-12-12T20:09:29.558Z,116.40
2022-12-12T20:11:57.406Z,115.50
2022-12-12T20:14:26.085Z,126.50
2022-12-12T20:16:54.129Z,127.33
2022-12-12T20:19:22.163Z,118.00
2022-12-12T20:22:05.593Z,119.47
2022-12-12T20:24:34.037Z,115.20
2022-12-12T20:27:03.017Z,120.07
2022-12-12T20:29:30.633Z,122.73
2022-12-12T20:31:59.823Z,116.60
2022-12-12T20:34:27.291Z,119.10
2022-12-12T20:36:55.734Z,119.73
2022-12-12T20:39:24.720Z,116.93
2022-12-12T20:41:53.525Z,123.87
2022-12-12T20:44:21.167Z,137.30
2022-12-12T20:46:48.360Z,162.10
2022-12-12T20:49:19.413Z,160.20
2022-12-12T20:51:55.816Z,158.87
2022-12-12T20:54:24.895Z,158.97
2022-12-12T20:56:52.702Z,143.57
2022-12-12T20:59:19.932Z,127.53
2022-12-12T21:01:47.623Z,109.77
2022-12-12T21:04:15.179Z,124.00
2022-12-12T21:06:44.390Z,125.57
2022-12-12T21:09:12.319Z,116.00
2022-12-12T21:11:41.274Z,133.63
2022-12-12T21:14:08.830Z,131.97
2022-12-12T21:16:37.738Z,122.80
2022-12-12T21:19:06.413Z,127.03
2022-12-12T21:21:33.736Z,118.37
2022-12-12T21:24:00.829Z,119.47
2022-12-12T21:26:29.451Z,117.93
2022-12-12T21:28:57.130Z,117.27
2022-12-12T21:31:25.598Z,115.67
2022-12-12T21:33:52.855Z,110.20
2022-12-12T21:36:21.089Z,110.87
2022-12-12T21:38:49.016Z,122.03
2022-12-12T21:41:17.416Z,111.53
2022-12-12T21:43:45.508Z,112.93
2022-12-12T21:46:14.244Z,123.07
2022-12-12T21:48:41.637Z,119.60
2022-12-12T21:51:10.057Z,118.60
2022-12-12T21:53:37.955Z,117.07
2022-12-12T21:56:06.254Z,127.37
2022-12-12T21:58:33.958Z,127.10
2022-12-12T22:01:12.015Z,117.67
2022-12-12T22:03:39.281Z,112.87
2022-12-12T22:06:10.997Z,120.67
2022-12-12T22:08:38.240Z,117.43
2022-12-12T22:11:07.700Z,115.40
2022-12-12T22:13:39.818Z,108.47
2022-12-12T22:16:19.325Z,118.63
2022-12-12T22:18:47.301Z,126.57
2022-12-12T22:21:15.766Z,130.47
2022-12-12T22:23:43.104Z,130.97
2022-12-12T22:26:14.142Z,150.43
2022-12-12T22:28:41.482Z,122.23
2022-12-12T22:31:08.604Z,132.80
2022-12-12T22:33:35.739Z,129.23
2022-12-12T22:36:03.854Z,130.40
2022-12-12T22:38:34.796Z,126.97
2022-12-12T22:41:05.923Z,116.73
2022-12-12T22:43:33.286Z,117.03
2022-12-12T22:46:04.911Z,126.33
2022-12-12T22:48:32.534Z,109.87
2022-12-12T22:50:59.698Z,122.13
2022-12-12T22:53:26.974Z,118.20
2022-12-12T22:55:54.085Z,114.10
2022-12-12T22:58:21.218Z,109.37
2022-12-12T23:00:48.285Z,107.80
2022-12-12T23:03:15.381Z,109.53
2022-12-12T23:05:42.529Z,109.57
2022-12-12T23:08:10.971Z,121.60
2022-12-12T23:10:38.665Z,113.93
2022-12-12T23:13:05.806Z,118.30
2022-12-12T23:15:32.945Z,114.33
2022-12-12T23:18:00.028Z,109.60
2022-12-12T23:20:27.151Z,111.43
2022-12-12T23:22:54.311Z,111.50
2022-12-12T23:25:21.393Z,112.60
2022-12-12T23:27:49.016Z,115.67
2022-12-12T23:30:16.178Z,110.73
2022-12-12T23:32:43.272Z,108.30
2022-12-12T23:35:10.405Z,109.83
2022-12-12T23:37:37.471Z,116.23
2022-12-12T23:40:06.285Z,113.63
2022-12-12T23:42:33.381Z,106.23
2022-12-12T23:45:00.466Z,113.43
2022-12-12T23:47:27.531Z,118.60
2022-12-12T23:49:54.650Z,122.57
2022-12-12T23:52:21.728Z,123.90
2022-12-12T23:54:48.806Z,129.83
2022-12-12T23:57:15.897Z,128.87
2022-12-12T23:59:43.910Z,122.33
